Roxbury, MA

11:40 AM EDT on August 20, 2014 (GMT -0400)
Boston - South End | Change Station
CLOSE
Current Station
Personal Weather Station
Location: Boston, MA
Elevation: 86 ft
Nearby Weather Stations

Elev 86 ft 42.34 °N, 71.07 °W | Updated 1 minute ago

Scattered Clouds
Scattered Clouds
73.2 °F
Feels Like 76 °F
N
6.0
Wind Variable Wind from SSE
Gusts 12.0 mph

Today
High -- | Low -- °F
--% Chance of Precip.
Yesterday
High -- | Low -- °F
Precip. -- in
5:56 AM 7:37 PM
Waning Crescent, 21% visible
Pressure 30.03 in
Visibility 10.0 miles
Clouds Few 5000 ft
Scattered Clouds 25000 ft
Heat Index 76 °F
Dew Point 59 °F
Humidity 61%
Rainfall 0.00 in
Snow Depth Not available.
UV 6 out of 12
Pollen 8.90 out of 12
PM2.5 Moderate
Flu Activity Not available.
METAR KBOS 201454Z 06005KT 10SM FEW050 SCT250 21/15 A3003 RMK AO2 SLP168 T02110150 53007

More Conditions Fewer Conditions

Pressure 30.03 in
Visibility 10.0 miles
Clouds Few 5000 ft
Scattered Clouds 25000 ft
Heat Index 76 °F
Dew Point 59 °F
Humidity 61%
Rainfall 0.00 in
Snow Depth Not available.
UV 6 out of 12
Pollen 8.90 out of 12
PM2.5 Moderate
Flu Activity Not available.
METAR KBOS 201454Z 06005KT 10SM FEW050 SCT250 21/15 A3003 RMK AO2 SLP168 T02110150 53007

More Conditions Fewer Conditions

10-Day Weather Forecast

Almanac

Astronomy

Aug. 20, 2014 Rise Set
Actual Time 5:56 AM EDT 7:37 PM EDT
Civil Twilight 5:26 AM EDT 8:07 PM EDT
Nautical Twilight 4:50 AM EDT 8:43 PM EDT
Astronomical Twilight 4:11 AM EDT 9:22 PM EDT
Moon 1:31 AM EDT 4:22 PM EDT
Length of Visible Light 14h 40m
Length of Day
13h 41m
Tomorrow will be 2m 37s shorter.
Waning Crescent, 21% of the Moon is Illuminated
Today
Waning Crescent
Aug 25
New
Sep 2
First Quarter
Sep 8
Full
Sep 15
Last Quarter

Today's Extremes

State Highs State Lows

Community

WunderPhotos

Upload Photos

1,745,668 photos uploaded!

WunderBlogs® & News

Nearby

Air Quality

  Air Quality AQ Index Pollutant
Yesterday Good
PM2.5
Yesterday Good
OZONE
Current Moderate
PM2.5
Wednesday Good
PM2.5
Wednesday Good
OZONE

Snow Depth

Station Depth Elevation
No new snow has been reported.

Earthquake Activity

City Distance Mag. Time & Date
Deep River Center, Connecticut 100 miles 2.7 3:09 AM EDT
2014-08-14
Minimum magnitude displayed is 2.5.

Coastal Water Temperatures

Place Temperature
Boston, MA 64.9 °F
Providence, RI 72.0 °F
Fall River, MA 73.9 °F
Conimicut Light, RI 73.0 °F

Nearby Weather Stations